createdAt,value
2022-09-13T00:17:39.365Z,0.08
2022-09-13T00:47:44.296Z,0.1
2022-09-13T01:17:45.350Z,0.14
2022-09-13T01:47:49.000Z,0.2
2022-09-13T02:17:50.337Z,0.03
2022-09-13T02:48:00.366Z,0.12
2022-09-13T03:18:04.400Z,0.16
2022-09-13T03:48:05.373Z,0.1
2022-09-13T04:18:12.746Z,0.21
2022-09-13T04:48:22.778Z,0.05
2022-09-13T05:18:26.715Z,0.06
2022-09-13T05:48:31.873Z,0.2
2022-09-13T06:18:36.723Z,0.08
2022-09-13T06:48:37.820Z,0.17
2022-09-13T07:18:43.862Z,0.17
2022-09-13T07:48:46.801Z,0.37
2022-09-13T08:18:47.000Z,0.2
2022-09-13T08:48:56.807Z,0.44
2022-09-13T09:18:58.979Z,0.35
2022-09-13T09:49:00.008Z,0.25
2022-09-13T10:19:07.336Z,0.5
2022-09-13T10:49:09.456Z,0.58
2022-09-13T11:19:11.550Z,0.47
2022-09-13T11:49:12.712Z,0.31
2022-09-13T12:19:23.443Z,0.41
2022-09-13T12:49:24.524Z,0.66
2022-09-13T13:19:34.503Z,0.33
2022-09-13T13:49:39.496Z,0.19
2022-09-13T14:19:40.554Z,0.85
2022-09-13T14:49:44.550Z,0.86
2022-09-13T15:19:46.587Z,0.8
2022-09-13T15:49:46.625Z,0.2
2022-09-13T16:19:47.568Z,0.25
2022-09-13T16:49:57.512Z,0.03
2022-09-13T17:19:57.553Z,0.17
2022-09-13T17:49:58.496Z,0.04
2022-09-13T18:20:08.586Z,0.1
2022-09-13T18:50:12.575Z,0.03
2022-09-13T19:20:15.662Z,0.2
2022-09-13T19:50:16.790Z,0.17
2022-09-13T20:20:25.000Z,0.16
2022-09-13T20:50:27.000Z,0.08
2022-09-13T21:20:32.689Z,0.16
2022-09-13T21:50:34.000Z,0.23
2022-09-13T22:20:39.721Z,0.36
2022-09-13T22:50:44.826Z,0.07
2022-09-13T23:20:45.746Z,0.15
2022-09-13T23:50:46.000Z,0.07
